Latest Weather Observations for Kuitpo

IDS60901

Issued at 5:45 pm CST Wednesday 23 April 2014 (issued every 10 minutes, with the page automatically refreshed every 10 minutes)

About weather observations | Map of Adelaide area stations | Latest observations for Adelaide area | Other Formats
Station Details ID: 023887 Name: KUITPO FOREST RESERVE Lat: -35.17 Lon: 138.68 Height: 365.0 m
Data from the previous 72 hours. | See also: Recent months at Kuitpo
Date/Time
CST
Tmp

°C
App
Tmp
°C
Dew
Point
°C
Rel
Hum
%
Delta-T

°C
Wind Press
QNH
hPa
Press
MSL
hPa
Rain
since
9 am
mm
Dir
 
Spd
km/h
Gust
km/h
Spd
kts
Gust
kts
23/05:30pm 15.4 12.9 6.4 55 4.5 NW 9 13 5 7 1013.8 - 0.0
23/05:00pm 16.1 13.5 6.3 52 4.9 NW 9 17 5 9 1013.7 - 0.0
23/04:30pm 16.0 13.1 4.7 47 5.4 NNW 9 15 5 8 1013.7 - 0.0
23/04:00pm 16.3 13.7 4.0 44 5.8 N 7 13 4 7 1013.6 - 0.0
23/03:30pm 17.3 14.0 4.3 42 6.3 WNW 11 19 6 10 1013.8 - 0.0
23/03:00pm 17.1 13.6 5.4 46 5.7 W 13 20 7 11 1013.8 1013.1 0.0
23/02:30pm 17.2 13.4 5.8 47 5.6 W 15 22 8 12 1014.1 - 0.0
23/02:00pm 17.0 13.2 5.9 48 5.5 WNW 15 24 8 13 1014.1 - 0.0
23/01:30pm 17.1 13.7 7.5 53 4.9 W 15 26 8 14 1014.4 - 0.0
23/01:00pm 16.2 12.4 7.4 56 4.5 W 17 26 9 14 1014.9 - 0.0
23/12:30pm 16.6 14.2 8.6 59 4.2 W 11 19 6 10 1015.5 - 0.0
23/12:00pm 15.7 12.8 8.0 60 3.9 WNW 13 19 7 10 1016.0 1015.4 0.0
23/11:30am 15.6 12.7 8.1 61 3.8 W 13 20 7 11 1016.6 - 0.0
23/11:00am 14.9 12.4 8.2 64 3.4 W 11 19 6 10 1016.9 - 0.0
23/10:30am 14.3 11.9 8.7 69 2.9 WNW 11 19 6 10 1017.1 - 0.0
23/10:00am 14.1 12.1 8.7 70 2.8 WNW 9 13 5 7 1017.3 - 0.0
23/09:30am 13.0 11.3 8.3 73 2.4 N 7 9 4 5 1017.3 - 0.0
23/09:00am 11.5 9.9 8.2 80 1.6 N 6 9 3 5 1017.4 1016.8 0.0
23/08:30am 10.4 8.6 7.8 84 1.3 N 7 9 4 5 1017.3 - 0.0
23/08:00am 9.5 7.6 7.4 87 1.0 N 7 11 4 6 1017.0 - 0.0
23/07:30am 9.3 7.5 7.9 91 0.7 NNE 7 9 4 5 1016.5 - 0.0
23/07:00am 8.7 6.6 8.3 97 0.2 NNE 9 11 5 6 1016.4 - 0.0
23/06:30am 8.2 5.6 7.9 98 0.1 NNE 11 13 6 7 1016.4 - 0.0
23/06:00am 8.3 5.7 7.9 97 0.2 NNE 11 15 6 8 1016.2 1015.6 0.0
23/05:30am 8.3 5.7 7.9 97 0.2 NNE 11 17 6 9 1016.0 - 0.0
23/05:00am 7.8 5.4 7.2 96 0.3 NNE 9 15 5 8 1016.2 - 0.0
23/04:30am 8.4 6.1 7.5 94 0.4 NE 9 11 5 6 1016.1 - 0.0
23/04:00am 9.1 6.6 8.0 93 0.5 NE 11 13 6 7 1016.2 - 0.0
23/03:30am 9.2 6.7 8.0 92 0.6 NE 11 13 6 7 1016.2 - 0.0
23/03:00am 9.2 7.0 8.0 92 0.6 NE 9 15 5 8 1016.6 1015.9 0.0
23/02:30am 9.3 7.1 7.9 91 0.7 ENE 9 11 5 6 1016.6 - 0.0
23/02:00am 9.4 7.2 7.8 90 0.8 ENE 9 11 5 6 1016.9 - 0.0
23/01:30am 9.9 7.9 8.5 91 0.7 ENE 9 11 5 6 1017.2 - 0.0
23/01:00am 9.5 7.4 8.1 91 0.7 ENE 9 11 5 6 1017.3 - 0.0
23/12:30am 9.7 7.1 7.8 88 0.9 ESE 11 13 6 7 1017.4 - 0.0
23/12:00am 9.8 7.2 7.7 87 1.0 ESE 11 15 6 8 1017.6 1017.0 0.0
 
Date/Time
CST
Tmp

°C
App
Tmp
°C
Dew
Point
°C
Rel
Hum
%
Delta-T

°C
Wind Press
QNH
hPa
Press
MSL
hPa
Rain
since
9 am
mm
Dir
 
Spd
km/h
Gust
km/h
Spd
kts
Gust
kts
22/11:30pm 10.0 7.4 7.8 86 1.1 ESE 11 13 6 7 1017.9 - 0.0
22/11:00pm 10.1 7.4 7.5 84 1.3 SE 11 15 6 8 1018.1 - 0.0
22/10:30pm 10.2 7.5 7.4 83 1.4 SE 11 15 6 8 1018.1 - 0.0
22/10:00pm 10.4 7.4 7.5 82 1.4 SE 13 17 7 9 1017.9 - 0.0
22/09:30pm 10.5 7.4 7.4 81 1.5 SE 13 17 7 9 1018.0 - 0.0
22/09:00pm 11.0 8.0 7.5 79 1.7 SE 13 17 7 9 1018.2 1017.6 0.0
22/08:30pm 10.9 8.3 7.8 81 1.5 SE 11 15 6 8 1018.0 - 0.0
22/08:00pm 11.1 8.2 8.0 81 1.5 SE 13 19 7 10 1018.0 - 0.0
22/07:30pm 11.3 8.3 7.8 79 1.7 SE 13 19 7 10 1018.0 - 0.0
22/07:00pm 11.3 8.3 7.6 78 1.8 SE 13 19 7 10 1017.8 - 0.0
22/06:30pm 11.6 9.0 7.7 77 1.9 SE 11 19 6 10 1017.5 - 0.0
22/06:00pm 12.0 9.4 7.7 75 2.1 SSE 11 24 6 13 1017.4 1016.8 0.0
22/05:30pm 13.0 9.5 7.2 68 2.9 S 15 24 8 13 1017.1 - 0.0
22/05:00pm 13.7 10.4 6.6 62 3.5 S 13 22 7 12 1016.8 - 0.0
22/04:30pm 15.2 11.9 6.5 56 4.3 S 13 20 7 11 1016.4 - 0.0
22/04:00pm 16.5 13.4 7.4 55 4.6 SSW 13 20 7 11 1016.1 - 0.0
22/03:30pm 17.7 14.8 8.0 53 5.0 SSW 13 20 7 11 1016.0 - 0.0
22/03:00pm 19.0 16.6 8.6 51 5.5 SSW 11 20 6 11 1015.9 1015.3 0.0
22/02:30pm 17.3 14.7 7.6 53 5.0 SSE 11 20 6 11 1015.7 - 0.0
22/02:00pm 17.2 14.4 8.4 56 4.6 SSW 13 20 7 11 1015.6 - 0.0
22/01:30pm 18.1 16.1 8.7 54 5.0 SSW 9 20 5 11 1015.6 - 0.0
22/01:00pm 18.3 15.9 8.8 54 5.0 SSW 11 20 6 11 1015.8 - 0.0
22/12:30pm 17.8 15.4 8.6 55 4.8 S 11 19 6 10 1016.1 - 0.0
22/12:00pm 17.1 14.0 8.8 58 4.4 SW 15 22 8 12 1016.5 1015.8 0.0
22/11:30am 16.4 13.6 8.4 59 4.2 S 13 22 7 12 1016.6 - 0.0
22/11:00am 16.1 14.2 9.1 63 3.7 S 9 17 5 9 1016.7 - 0.0
22/10:30am 15.9 13.8 9.6 66 3.3 S 11 20 6 11 1016.7 - 0.0
22/10:00am 14.6 12.2 10.0 74 2.4 SSW 13 20 7 11 1016.7 - 0.0
22/09:30am 14.9 12.7 10.7 76 2.3 S 13 20 7 11 1016.6 - 0.0
22/09:00am 13.8 12.1 11.1 84 1.5 S 11 20 6 11 1016.2 1015.6 1.2
22/08:30am 13.5 11.9 11.4 87 1.1 S 11 20 6 11 1016.0 - 1.2
22/08:00am 12.9 10.8 11.3 90 0.9 S 13 20 7 11 1015.6 - 1.2
22/07:30am 12.9 10.7 12.0 94 0.5 S 15 30 8 16 1015.2 - 1.2
22/07:00am 13.1 11.2 12.9 99 0.1 S 15 24 8 13 1014.7 - 1.2
22/06:30am 13.1 11.6 13.1 100 0.0 S 13 20 7 11 1014.3 - 1.2
22/06:00am 13.0 11.5 13.0 100 0.0 S 13 20 7 11 1013.8 1013.1 1.2
22/05:30am 13.3 11.9 13.3 100 0.0 S 13 20 7 11 1013.7 - 1.2
22/05:00am 14.0 13.2 14.0 100 0.0 SSE 11 17 6 9 1013.2 - 1.2
22/04:30am 13.8 13.3 13.8 100 0.0 SSE 9 15 5 8 1013.0 - 1.2
22/04:00am 13.9 12.7 13.9 100 0.0 SSE 13 20 7 11 1012.5 - 1.2
22/03:30am 13.9 13.4 13.9 100 0.0 ESE 9 13 5 7 1012.0 - 1.2
22/03:00am 14.1 13.3 14.1 100 0.0 SSE 11 19 6 10 1011.8 1011.1 1.2
22/02:30am 14.0 12.6 13.4 96 0.3 SE 13 19 7 10 1011.8 - 1.2
22/02:00am 14.9 13.8 12.0 83 1.6 S 9 17 5 9 1011.9 - 1.2
22/01:30am 15.2 13.4 12.0 81 1.8 W 13 24 7 13 1011.7 - 1.2
22/01:00am 15.9 15.0 11.5 75 2.4 NE 7 13 4 7 1011.4 - 1.2
22/12:30am 16.3 15.6 12.1 76 2.3 NNW 7 15 4 8 1011.4 - 0.4
22/12:00am 17.7 16.7 11.0 65 3.7 E 7 11 4 6 1012.1 1011.4 0.0
 
Date/Time
CST
Tmp

°C
App
Tmp
°C
Dew
Point
°C
Rel
Hum
%
Delta-T

°C
Wind Press
QNH
hPa
Press
MSL
hPa
Rain
since
9 am
mm
Dir
 
Spd
km/h
Gust
km/h
Spd
kts
Gust
kts
21/11:30pm 17.6 16.6 10.9 65 3.7 N 7 11 4 6 1012.3 - 0.0
21/11:00pm 17.7 16.6 10.6 63 3.9 S 7 9 4 5 1011.7 - 0.0
21/10:30pm 17.7 15.3 11.3 66 3.5 SW 15 28 8 15 1012.3 - 0.0
21/10:00pm 20.0 17.9 9.6 51 5.6 NW 11 17 6 9 1011.7 - 0.0
21/09:30pm 19.9 18.2 9.8 52 5.5 NW 9 15 5 8 1011.5 - 0.0
21/09:00pm 19.9 17.9 10.0 53 5.4 NNW 11 22 6 12 1011.5 1010.8 0.0
21/08:30pm 19.9 17.9 10.3 54 5.3 WNW 11 19 6 10 1011.6 - 0.0
21/08:00pm 19.7 18.1 11.5 59 4.6 NNW 11 17 6 9 1011.4 - 0.0
21/07:30pm 19.5 17.9 11.5 60 4.5 W 11 15 6 8 1011.5 - 0.0
21/07:00pm 22.2 18.8 7.6 39 7.7 NW 15 22 8 12 1011.1 - 0.0
21/06:30pm 22.8 19.3 7.4 37 8.1 NNW 15 28 8 15 1011.1 - 0.0
21/06:00pm 23.2 18.9 7.7 37 8.3 NNW 20 32 11 17 1010.9 1010.2 0.0
21/05:30pm 23.7 17.8 7.3 35 8.7 NNW 28 46 15 25 1010.6 - 0.0
21/05:26pm 23.7 17.8 7.3 35 8.7 NNW 28 46 15 25 1010.6 - 0.0
21/05:00pm 23.8 19.1 7.8 36 8.6 NNW 22 35 12 19 1010.3 - 0.0
21/04:30pm 23.8 18.8 8.2 37 8.4 NNW 24 43 13 23 1010.1 - 0.0
21/04:14pm 23.9 18.2 8.3 37 8.4 NNW 28 50 15 27 1010.2 - 0.0
21/04:00pm 23.9 19.3 8.3 37 8.4 NNW 22 37 12 20 1010.3 - 0.0
21/03:30pm 23.9 19.3 8.3 37 8.4 NNW 22 43 12 23 1010.7 - 0.0
21/03:13pm 24.1 18.3 8.1 36 8.6 NNW 28 48 15 26 1010.8 - 0.0
21/03:00pm 24.4 19.6 8.8 37 8.6 NNW 24 44 13 24 1010.9 1010.2 0.0
21/02:30pm 24.5 18.8 8.5 36 8.7 NNW 28 48 15 26 1010.8 - 0.0
21/02:27pm 24.5 18.8 8.5 36 8.7 NNW 28 48 15 26 1010.8 - 0.0
21/02:00pm 24.2 19.2 8.2 36 8.7 NNW 24 41 13 22 1011.0 - 0.0
21/01:30pm 25.7 19.6 8.2 33 9.5 NNW 30 50 16 27 1011.2 - 0.0
21/01:00pm 25.5 19.1 8.5 34 9.3 NNW 32 61 17 33 1011.6 - 0.0
21/12:30pm 24.6 18.8 8.1 35 8.9 NNW 28 57 15 31 1012.0 - 0.0
21/12:00pm 24.1 18.3 8.1 36 8.6 NNW 28 48 15 26 1012.2 1011.5 0.0
21/11:31am 23.1 17.3 8.0 38 8.1 NNW 28 50 15 27 1012.7 - 0.0
21/11:30am 23.1 17.7 8.0 38 8.1 NNW 26 44 14 24 1012.7 - 0.0
21/11:00am 23.8 17.2 7.8 36 8.6 NNW 32 56 17 30 1013.0 - 0.0
21/10:30am 23.9 17.1 7.9 36 8.6 NNW 33 56 18 30 1013.1 - 0.0
21/10:00am 23.1 16.8 7.6 37 8.2 NNW 30 57 16 31 1013.1 - 0.0
21/09:30am 22.2 15.9 7.6 39 7.7 NNW 30 56 16 30 1013.1 - 0.0
21/09:00am 21.7 14.7 6.8 38 7.7 NNW 33 56 18 30 1013.2 1012.6 0.0
21/08:30am 20.9 14.5 6.8 40 7.3 N 30 52 16 28 1013.2 - 0.0
21/08:00am 20.6 14.2 6.9 41 7.1 NNW 30 59 16 32 1013.0 - 0.0
21/07:40am 20.4 14.5 7.4 43 6.8 N 28 52 15 28 1013.1 - 0.0
21/07:30am 20.0 14.8 7.4 44 6.6 N 24 46 13 25 1013.0 - 0.0
21/07:00am 19.3 15.2 7.7 47 6.0 N 19 32 10 17 1012.9 - 0.0
21/06:30am 18.8 14.6 7.6 48 5.8 N 19 39 10 21 1012.9 - 0.0
21/06:00am 18.7 14.5 7.5 48 5.8 N 19 33 10 18 1013.0 1012.4 0.0
21/05:30am 18.5 14.3 7.6 49 5.6 N 19 33 10 18 1012.9 - 0.0
21/05:00am 16.7 13.4 8.1 57 4.4 NNE 15 33 8 18 1013.0 - 0.0
21/04:30am 15.8 12.1 7.8 59 4.1 NNE 17 28 9 15 1012.9 - 0.0
21/04:00am 15.8 11.8 8.1 60 4.0 NNE 19 30 10 16 1012.9 - 0.0
21/03:30am 14.6 11.1 8.8 68 3.0 NNE 17 28 9 15 1013.0 - 0.0
21/03:00am 15.0 11.3 8.0 63 3.6 NE 17 26 9 14 1013.8 1013.1 0.0
21/02:30am 14.7 11.1 8.2 65 3.3 NE 17 24 9 13 1014.1 - 0.0
21/02:00am 14.5 11.0 8.7 68 3.0 NE 17 28 9 15 1014.6 - 0.0
21/01:30am 14.2 10.4 9.2 72 2.6 NE 19 30 10 16 1015.1 - 0.0
21/01:00am 13.9 9.6 9.5 75 2.3 NE 22 33 12 18 1015.2 - 0.0
21/12:30am 13.5 9.6 9.6 77 2.0 NE 20 28 11 15 1015.3 - 0.0
21/12:00am 13.4 9.5 9.5 77 2.0 NE 20 28 11 15 1015.7 1015.1 0.0
 
Date/Time
CST
Tmp

°C
App
Tmp
°C
Dew
Point
°C
Rel
Hum
%
Delta-T

°C
Wind Press
QNH
hPa
Press
MSL
hPa
Rain
since
9 am
mm
Dir
 
Spd
km/h
Gust
km/h
Spd
kts
Gust
kts
20/11:30pm 13.1 9.4 9.4 78 1.9 ENE 19 24 10 13 1016.0 - 0.0
20/11:00pm 13.4 9.7 9.3 76 2.1 NE 19 24 10 13 1016.4 - 0.0
20/10:30pm 13.4 9.5 9.5 77 2.0 ENE 20 26 11 14 1016.7 - 0.0
20/10:00pm 13.6 10.7 9.8 78 2.0 ENE 15 22 8 12 1017.1 - 0.0
20/09:30pm 14.8 13.5 10.0 73 2.5 ENE 7 9 4 5 1017.5 - 0.0
20/09:00pm 13.9 12.6 10.1 78 2.0 ENE 7 11 4 6 1017.5 1016.9 0.0
20/08:30pm 14.1 13.1 10.3 78 2.0 WSW 6 7 3 4 1017.5 - 0.0
20/08:00pm 14.7 14.8 10.3 75 2.3 CALM 0 0 0 0 1017.6 - 0.0
20/07:30pm 14.8 14.9 10.2 74 2.4 CALM 0 0 0 0 1017.5 - 0.0
20/07:00pm 14.9 13.9 10.3 74 2.5 WSW 6 7 3 4 1017.4 - 0.0
20/06:30pm 14.8 13.9 10.6 76 2.3 WSW 6 9 3 5 1017.4 - 0.0
20/06:00pm 15.0 13.3 10.0 72 2.7 W 9 11 5 6 1017.2 1016.6 0.0

Latest Capital City Observations: Canberra | Sydney | Melbourne | Brisbane | Adelaide | Perth | Hobart | Darwin

Other Formats:

Comma delimited format used in spreadsheet applications
http://www.bom.gov.au/fwo/IDS60901/IDS60901.94683.axf

JavaScript Object Notation format (JSON) in row-major order
http://www.bom.gov.au/fwo/IDS60901/IDS60901.94683.json